sensor_id;sensor_type;location;lat;lon;timestamp;P1;durP1;ratioP1;P2;durP2;ratioP2
4430;SDS011;2228;48.140;11.488;2023-09-08T11:47:31;5.95;;;4.70;;
4430;SDS011;2228;48.140;11.488;2023-09-08T11:49:58;6.80;;;4.70;;
4430;SDS011;2228;48.140;11.488;2023-09-08T11:52:26;4.60;;;3.95;;
4430;SDS011;2228;48.140;11.488;2023-09-08T11:54:54;5.03;;;4.53;;
4430;SDS011;2228;48.140;11.488;2023-09-08T11:57:21;5.15;;;4.40;;
4430;SDS011;2228;48.140;11.488;2023-09-08T11:59:48;5.57;;;4.80;;
4430;SDS011;2228;48.140;11.488;2023-09-08T12:02:17;8.23;;;4.93;;
4430;SDS011;2228;48.140;11.488;2023-09-08T12:04:46;7.82;;;4.70;;
4430;SDS011;2228;48.140;11.488;2023-09-08T12:07:13;5.83;;;4.93;;
4430;SDS011;2228;48.140;11.488;2023-09-08T12:09:41;5.65;;;4.63;;
4430;SDS011;2228;48.140;11.488;2023-09-08T12:12:10;5.93;;;4.50;;
4430;SDS011;2228;48.140;11.488;2023-09-08T12:14:40;9.45;;;4.80;;
4430;SDS011;2228;48.140;11.488;2023-09-08T12:17:07;4.97;;;4.47;;
4430;SDS011;2228;48.140;11.488;2023-09-08T12:19:34;8.45;;;4.90;;
4430;SDS011;2228;48.140;11.488;2023-09-08T12:22:04;8.88;;;4.75;;
4430;SDS011;2228;48.140;11.488;2023-09-08T12:24:49;5.30;;;4.50;;
4430;SDS011;2228;48.140;11.488;2023-09-08T12:27:16;5.90;;;4.50;;
4430;SDS011;2228;48.140;11.488;2023-09-08T12:29:54;11.20;;;4.75;;
4430;SDS011;2228;48.140;11.488;2023-09-08T12:32:22;5.05;;;4.55;;
4430;SDS011;2228;48.140;11.488;2023-09-08T12:34:49;7.72;;;4.20;;
4430;SDS011;2228;48.140;11.488;2023-09-08T12:37:20;7.05;;;4.20;;
4430;SDS011;2228;48.140;11.488;2023-09-08T12:39:48;7.85;;;4.43;;
4430;SDS011;2228;48.140;11.488;2023-09-08T12:42:15;6.10;;;4.10;;
4430;SDS011;2228;48.140;11.488;2023-09-08T12:44:42;4.28;;;3.88;;
4430;SDS011;2228;48.140;11.488;2023-09-08T12:47:09;5.60;;;4.20;;
4430;SDS011;2228;48.140;11.488;2023-09-08T12:49:37;5.95;;;4.32;;
4430;SDS011;2228;48.140;11.488;2023-09-08T12:52:04;4.70;;;3.85;;
4430;SDS011;2228;48.140;11.488;2023-09-08T12:54:33;4.10;;;3.70;;
4430;SDS011;2228;48.140;11.488;2023-09-08T12:57:00;6.03;;;4.15;;
4430;SDS011;2228;48.140;11.488;2023-09-08T12:59:27;5.68;;;4.00;;
4430;SDS011;2228;48.140;11.488;2023-09-08T13:01:54;4.45;;;4.05;;
4430;SDS011;2228;48.140;11.488;2023-09-08T13:04:21;4.80;;;4.37;;
4430;SDS011;2228;48.140;11.488;2023-09-08T13:06:48;5.20;;;4.70;;
4430;SDS011;2228;48.140;11.488;2023-09-08T13:09:15;6.97;;;4.13;;
4430;SDS011;2228;48.140;11.488;2023-09-08T13:11:44;4.07;;;3.77;;
4430;SDS011;2228;48.140;11.488;2023-09-08T13:14:10;4.15;;;3.63;;
4430;SDS011;2228;48.140;11.488;2023-09-08T13:16:37;4.35;;;3.70;;
4430;SDS011;2228;48.140;11.488;2023-09-08T13:19:04;5.28;;;4.20;;
4430;SDS011;2228;48.140;11.488;2023-09-08T13:21:31;6.60;;;3.90;;
4430;SDS011;2228;48.140;11.488;2023-09-08T13:23:58;4.60;;;4.20;;
4430;SDS011;2228;48.140;11.488;2023-09-08T13:26:26;4.68;;;4.22;;
4430;SDS011;2228;48.140;11.488;2023-09-08T13:28:54;5.50;;;4.10;;
4430;SDS011;2228;48.140;11.488;2023-09-08T13:31:21;4.70;;;4.20;;
4430;SDS011;2228;48.140;11.488;2023-09-08T13:33:48;6.40;;;4.35;;
4430;SDS011;2228;48.140;11.488;2023-09-08T13:36:15;6.85;;;4.32;;
4430;SDS011;2228;48.140;11.488;2023-09-08T13:38:42;5.15;;;4.65;;
4430;SDS011;2228;48.140;11.488;2023-09-08T13:41:09;5.93;;;4.50;;
4430;SDS011;2228;48.140;11.488;2023-09-08T13:43:35;5.00;;;4.50;;
4430;SDS011;2228;48.140;11.488;2023-09-08T13:46:04;5.95;;;3.90;;
4430;SDS011;2228;48.140;11.488;2023-09-08T13:48:30;5.82;;;4.30;;
4430;SDS011;2228;48.140;11.488;2023-09-08T13:51:00;5.97;;;4.25;;
4430;SDS011;2228;48.140;11.488;2023-09-08T13:53:27;8.93;;;4.50;;
4430;SDS011;2228;48.140;11.488;2023-09-08T13:55:55;4.15;;;3.72;;
4430;SDS011;2228;48.140;11.488;2023-09-08T13:58:22;4.60;;;4.03;;
4430;SDS011;2228;48.140;11.488;2023-09-08T14:00:49;5.72;;;4.60;;
4430;SDS011;2228;48.140;11.488;2023-09-08T14:03:17;5.30;;;4.07;;
4430;SDS011;2228;48.140;11.488;2023-09-08T14:05:44;5.30;;;4.30;;
4430;SDS011;2228;48.140;11.488;2023-09-08T14:08:11;5.05;;;4.15;;
4430;SDS011;2228;48.140;11.488;2023-09-08T14:10:38;5.30;;;4.13;;
4430;SDS011;2228;48.140;11.488;2023-09-08T14:13:05;9.50;;;4.80;;
4430;SDS011;2228;48.140;11.488;2023-09-08T14:15:32;6.43;;;4.00;;
4430;SDS011;2228;48.140;11.488;2023-09-08T14:17:58;4.85;;;4.32;;
4430;SDS011;2228;48.140;11.488;2023-09-08T14:20:27;4.68;;;4.15;;
4430;SDS011;2228;48.140;11.488;2023-09-08T14:22:54;4.72;;;3.88;;
4430;SDS011;2228;48.140;11.488;2023-09-08T14:25:21;4.63;;;4.18;;
4430;SDS011;2228;48.140;11.488;2023-09-08T14:27:48;4.13;;;3.77;;
4430;SDS011;2228;48.140;11.488;2023-09-08T14:30:15;3.70;;;3.40;;
4430;SDS011;2228;48.140;11.488;2023-09-08T14:32:42;4.60;;;3.80;;
4430;SDS011;2228;48.140;11.488;2023-09-08T14:35:09;3.85;;;3.50;;
4430;SDS011;2228;48.140;11.488;2023-09-08T14:37:37;5.40;;;3.70;;
4430;SDS011;2228;48.140;11.488;2023-09-08T14:40:05;3.55;;;3.25;;
4430;SDS011;2228;48.140;11.488;2023-09-08T14:42:32;4.93;;;3.50;;
4430;SDS011;2228;48.140;11.488;2023-09-08T14:44:59;5.30;;;3.72;;
4430;SDS011;2228;48.140;11.488;2023-09-08T14:47:26;5.75;;;3.50;;
4430;SDS011;2228;48.140;11.488;2023-09-08T14:49:53;5.20;;;4.50;;
4430;SDS011;2228;48.140;11.488;2023-09-08T14:52:21;5.78;;;5.22;;
4430;SDS011;2228;48.140;11.488;2023-09-08T14:54:50;5.55;;;5.05;;
4430;SDS011;2228;48.140;11.488;2023-09-08T14:57:17;6.10;;;5.50;;
4430;SDS011;2228;48.140;11.488;2023-09-08T14:59:44;6.07;;;4.93;;
4430;SDS011;2228;48.140;11.488;2023-09-08T15:02:11;5.80;;;4.30;;
4430;SDS011;2228;48.140;11.488;2023-09-08T15:04:38;5.10;;;4.60;;
4430;SDS011;2228;48.140;11.488;2023-09-08T15:07:05;5.82;;;3.90;;
4430;SDS011;2228;48.140;11.488;2023-09-08T15:09:31;4.93;;;4.20;;
4430;SDS011;2228;48.140;11.488;2023-09-08T15:12:00;8.38;;;5.00;;
4430;SDS011;2228;48.140;11.488;2023-09-08T15:14:27;7.00;;;5.22;;
4430;SDS011;2228;48.140;11.488;2023-09-08T15:16:54;7.70;;;6.20;;
4430;SDS011;2228;48.140;11.488;2023-09-08T15:19:21;7.43;;;5.75;;
4430;SDS011;2228;48.140;11.488;2023-09-08T15:21:47;6.90;;;5.30;;
4430;SDS011;2228;48.140;11.488;2023-09-08T15:24:14;7.40;;;5.20;;
4430;SDS011;2228;48.140;11.488;2023-09-08T15:26:41;6.53;;;5.10;;
4430;SDS011;2228;48.140;11.488;2023-09-08T15:29:11;6.13;;;5.10;;
4430;SDS011;2228;48.140;11.488;2023-09-08T15:31:39;5.20;;;4.70;;
4430;SDS011;2228;48.140;11.488;2023-09-08T15:34:06;5.38;;;4.75;;
4430;SDS011;2228;48.140;11.488;2023-09-08T15:36:34;7.03;;;5.32;;
4430;SDS011;2228;48.140;11.488;2023-09-08T15:39:01;5.40;;;4.90;;
4430;SDS011;2228;48.140;11.488;2023-09-08T15:41:29;5.83;;;4.70;;
4430;SDS011;2228;48.140;11.488;2023-09-08T15:43:55;5.60;;;5.10;;
4430;SDS011;2228;48.140;11.488;2023-09-08T15:46:24;5.53;;;4.70;;
4430;SDS011;2228;48.140;11.488;2023-09-08T15:48:51;4.40;;;4.00;;
4430;SDS011;2228;48.140;11.488;2023-09-08T15:51:18;4.95;;;4.30;;
4430;SDS011;2228;48.140;11.488;2023-09-08T15:53:44;6.18;;;4.15;;
4430;SDS011;2228;48.140;11.488;2023-09-08T15:56:11;8.80;;;4.13;;
4430;SDS011;2228;48.140;11.488;2023-09-08T15:58:38;5.90;;;4.30;;
4430;SDS011;2228;48.140;11.488;2023-09-08T16:01:06;7.40;;;4.53;;
4430;SDS011;2228;48.140;11.488;2023-09-08T16:03:34;7.55;;;4.65;;
4430;SDS011;2228;48.140;11.488;2023-09-08T16:06:01;10.05;;;4.10;;
4430;SDS011;2228;48.140;11.488;2023-09-08T16:08:28;5.40;;;4.90;;
4430;SDS011;2228;48.140;11.488;2023-09-08T16:10:55;7.38;;;4.35;;
4430;SDS011;2228;48.140;11.488;2023-09-08T16:13:22;5.05;;;4.55;;
4430;SDS011;2228;48.140;11.488;2023-09-08T16:15:49;6.10;;;4.30;;
4430;SDS011;2228;48.140;11.488;2023-09-08T16:18:16;7.22;;;4.63;;
4430;SDS011;2228;48.140;11.488;2023-09-08T16:20:44;5.78;;;4.82;;
4430;SDS011;2228;48.140;11.488;2023-09-08T16:23:11;4.77;;;4.10;;
4430;SDS011;2228;48.140;11.488;2023-09-08T16:25:38;4.10;;;3.80;;
4430;SDS011;2228;48.140;11.488;2023-09-08T16:28:05;6.90;;;4.50;;
4430;SDS011;2228;48.140;11.488;2023-09-08T16:30:32;5.50;;;4.22;;
4430;SDS011;2228;48.140;11.488;2023-09-08T16:33:00;4.80;;;4.30;;
4430;SDS011;2228;48.140;11.488;2023-09-08T16:35:27;5.55;;;4.65;;
4430;SDS011;2228;48.140;11.488;2023-09-08T16:37:55;6.97;;;4.90;;
4430;SDS011;2228;48.140;11.488;2023-09-08T16:40:22;5.82;;;4.65;;
4430;SDS011;2228;48.140;11.488;2023-09-08T16:42:49;5.30;;;4.30;;
4430;SDS011;2228;48.140;11.488;2023-09-08T16:45:16;6.63;;;4.60;;
4430;SDS011;2228;48.140;11.488;2023-09-08T16:47:43;4.90;;;4.40;;
4430;SDS011;2228;48.140;11.488;2023-09-08T16:50:10;6.07;;;4.38;;
4430;SDS011;2228;48.140;11.488;2023-09-08T16:52:37;6.45;;;4.97;;
4430;SDS011;2228;48.140;11.488;2023-09-08T16:55:05;5.15;;;4.40;;
4430;SDS011;2228;48.140;11.488;2023-09-08T16:57:36;5.20;;;4.80;;
4430;SDS011;2228;48.140;11.488;2023-09-08T17:00:04;7.10;;;5.30;;
4430;SDS011;2228;48.140;11.488;2023-09-08T17:02:32;6.60;;;5.25;;
4430;SDS011;2228;48.140;11.488;2023-09-08T17:05:00;7.13;;;5.72;;
4430;SDS011;2228;48.140;11.488;2023-09-08T17:07:26;5.95;;;5.35;;
4430;SDS011;2228;48.140;11.488;2023-09-08T17:09:53;7.67;;;6.30;;
4430;SDS011;2228;48.140;11.488;2023-09-08T17:12:22;8.40;;;6.45;;
4430;SDS011;2228;48.140;11.488;2023-09-08T17:14:48;7.93;;;6.35;;
4430;SDS011;2228;48.140;11.488;2023-09-08T17:17:15;11.88;;;7.00;;
4430;SDS011;2228;48.140;11.488;2023-09-08T17:19:42;8.70;;;6.18;;
4430;SDS011;2228;48.140;11.488;2023-09-08T17:22:09;8.98;;;6.80;;
4430;SDS011;2228;48.140;11.488;2023-09-08T17:24:36;7.63;;;6.70;;
4430;SDS011;2228;48.140;11.488;2023-09-08T17:27:03;10.20;;;7.15;;
4430;SDS011;2228;48.140;11.488;2023-09-08T17:29:31;8.27;;;6.95;;
4430;SDS011;2228;48.140;11.488;2023-09-08T17:31:58;9.32;;;7.07;;
4430;SDS011;2228;48.140;11.488;2023-09-08T17:34:26;9.85;;;7.63;;
4430;SDS011;2228;48.140;11.488;2023-09-08T17:36:53;10.63;;;7.35;;
4430;SDS011;2228;48.140;11.488;2023-09-08T17:39:21;8.68;;;7.18;;
4430;SDS011;2228;48.140;11.488;2023-09-08T17:41:48;9.98;;;7.45;;
4430;SDS011;2228;48.140;11.488;2023-09-08T17:44:15;8.53;;;7.33;;
4430;SDS011;2228;48.140;11.488;2023-09-08T17:46:43;10.70;;;7.50;;
4430;SDS011;2228;48.140;11.488;2023-09-08T17:49:10;10.00;;;7.50;;
4430;SDS011;2228;48.140;11.488;2023-09-08T17:51:37;11.95;;;7.05;;
4430;SDS011;2228;48.140;11.488;2023-09-08T17:54:04;10.10;;;7.65;;
